createdAt,value
2023-04-02T00:01:03.093Z,46.51
2023-04-02T00:03:54.282Z,46.95
2023-04-02T00:06:33.398Z,46.35
2023-04-02T00:09:25.330Z,45.84
2023-04-02T00:11:57.832Z,46.58
2023-04-02T00:14:27.740Z,46.73
2023-04-02T00:16:57.571Z,47.08
2023-04-02T00:19:45.048Z,46.48
2023-04-02T00:22:34.336Z,46.73
2023-04-02T00:25:13.730Z,46.51
2023-04-02T00:27:40.640Z,47.05
2023-04-02T00:30:09.591Z,47.00
2023-04-02T00:32:42.878Z,47.51
2023-04-02T00:35:32.085Z,47.23
2023-04-02T00:38:01.836Z,47.30
2023-04-02T00:40:41.296Z,47.27
2023-04-02T00:43:09.407Z,47.36
2023-04-02T00:45:38.970Z,47.24
2023-04-02T00:48:26.239Z,47.83
2023-04-02T00:53:49.321Z,49.19
2023-04-02T00:56:26.954Z,49.47
2023-04-02T00:58:56.444Z,51.04
2023-04-02T01:01:37.248Z,50.74
2023-04-02T01:04:25.890Z,50.70
2023-04-02T01:06:56.007Z,50.51
2023-04-02T01:09:48.876Z,50.92
2023-04-02T01:12:44.803Z,50.64
2023-04-02T01:15:22.544Z,51.33
2023-04-02T01:17:54.788Z,50.52
2023-04-02T01:20:34.508Z,49.93
2023-04-02T01:26:09.899Z,49.52
2023-04-02T01:29:15.586Z,48.67
2023-04-02T01:31:53.954Z,49.91
2023-04-02T01:34:26.671Z,49.28
2023-04-02T01:37:20.596Z,49.34
2023-04-02T01:40:15.006Z,48.86
2023-04-02T01:43:00.442Z,48.83
2023-04-02T01:45:35.675Z,48.76
2023-04-02T01:48:27.590Z,49.79
2023-04-02T01:50:57.218Z,50.10
2023-04-02T01:53:26.175Z,50.56
2023-04-02T01:58:49.769Z,51.60
2023-04-02T02:01:23.516Z,51.43
2023-04-02T02:03:51.648Z,50.30
2023-04-02T02:06:19.720Z,51.40
2023-04-02T02:09:06.129Z,49.63
2023-04-02T02:11:34.284Z,49.14
2023-04-02T02:14:12.287Z,48.59
2023-04-02T02:16:45.258Z,49.32
2023-04-02T02:19:30.119Z,48.90
2023-04-02T02:22:21.683Z,49.15
2023-04-02T02:25:21.027Z,50.71
2023-04-02T02:28:19.576Z,49.96
2023-04-02T02:30:53.759Z,49.71
2023-04-02T02:33:42.428Z,50.42
2023-04-02T02:36:42.325Z,49.07
2023-04-02T02:39:49.975Z,50.32
2023-04-02T02:42:22.802Z,50.08
2023-04-02T02:45:01.691Z,49.91
2023-04-02T02:47:34.566Z,50.81
2023-04-02T02:50:06.625Z,50.24
2023-04-02T02:53:07.542Z,51.00
2023-04-02T02:55:43.338Z,50.51
2023-04-02T02:58:27.011Z,51.04
2023-04-02T03:00:55.766Z,49.71
2023-04-02T03:03:32.690Z,49.40
2023-04-02T03:06:17.536Z,48.71
2023-04-02T03:09:05.514Z,49.47
2023-04-02T03:11:44.170Z,49.65
2023-04-02T03:14:40.586Z,50.41
2023-04-02T03:17:18.117Z,49.62
2023-04-02T03:19:58.009Z,48.53
2023-04-02T03:22:50.872Z,49.32
2023-04-02T03:26:00.336Z,49.57
2023-04-02T03:28:39.305Z,52.03
2023-04-02T03:31:34.475Z,50.91
2023-04-02T03:34:32.492Z,50.38
2023-04-02T03:37:45.357Z,49.44
2023-04-02T03:40:55.365Z,49.27
2023-04-02T03:43:54.031Z,49.67
2023-04-02T03:46:32.688Z,49.25
2023-04-02T03:49:30.830Z,48.72
2023-04-02T03:52:33.686Z,50.90
2023-04-02T03:55:24.899Z,50.35
2023-04-02T03:58:07.885Z,50.02
2023-04-02T04:01:03.824Z,49.53
2023-04-02T04:03:36.937Z,51.42
2023-04-02T04:06:11.894Z,51.33
2023-04-02T04:08:49.362Z,51.77
2023-04-02T04:11:24.978Z,52.57
2023-04-02T04:14:09.855Z,51.41
2023-04-02T04:16:55.923Z,51.68
2023-04-02T04:19:57.316Z,53.25
2023-04-02T04:22:36.692Z,54.27
2023-04-02T04:25:21.329Z,54.94
2023-04-02T04:28:01.506Z,55.00
2023-04-02T04:31:04.688Z,56.13
2023-04-02T04:33:43.963Z,56.63
2023-04-02T04:36:33.994Z,56.92
2023-04-02T04:39:08.331Z,56.95
2023-04-02T04:41:40.706Z,57.09
2023-04-02T04:44:13.839Z,57.38
2023-04-02T04:47:11.678Z,57.76
2023-04-02T04:50:14.029Z,58.05
2023-04-02T04:52:44.113Z,57.59
2023-04-02T04:55:35.804Z,56.44
2023-04-02T04:58:26.226Z,54.72
2023-04-02T05:01:12.225Z,53.65
2023-04-02T05:03:54.748Z,54.40
2023-04-02T05:06:57.986Z,56.64
2023-04-02T05:09:42.096Z,55.01
2023-04-02T05:12:42.246Z,52.66
2023-04-02T05:15:18.065Z,54.50
2023-04-02T05:18:04.036Z,55.30
2023-04-02T05:21:08.019Z,56.32
2023-04-02T05:23:57.025Z,54.76
2023-04-02T05:26:34.009Z,55.10
2023-04-02T05:29:21.375Z,56.58
2023-04-02T05:32:04.890Z,55.62
2023-04-02T05:35:11.613Z,56.33
2023-04-02T05:37:54.045Z,56.54
2023-04-02T05:40:32.866Z,56.38
2023-04-02T05:43:02.382Z,57.13
2023-04-02T05:45:38.398Z,57.71
2023-04-02T05:48:19.114Z,57.65
2023-04-02T05:51:00.356Z,57.41
2023-04-02T05:53:53.918Z,58.04
2023-04-02T05:56:45.140Z,57.93
2023-04-02T05:59:24.769Z,58.98
2023-04-02T06:02:06.182Z,58.49
2023-04-02T06:04:55.088Z,58.00
2023-04-02T06:08:10.695Z,57.97
2023-04-02T06:11:23.363Z,58.16
2023-04-02T06:13:54.054Z,58.29
2023-04-02T06:16:42.526Z,58.12
2023-04-02T06:19:35.577Z,57.86
2023-04-02T06:22:26.727Z,59.14
2023-04-02T06:25:16.863Z,58.91
2023-04-02T06:27:47.618Z,58.28
2023-04-02T06:30:26.495Z,59.00
2023-04-02T06:32:56.849Z,58.13
2023-04-02T06:35:51.223Z,58.52
2023-04-02T06:38:25.679Z,58.33
2023-04-02T06:41:01.678Z,58.82
2023-04-02T06:43:51.488Z,60.31
2023-04-02T06:46:25.318Z,60.56
2023-04-02T06:48:57.140Z,60.14
2023-04-02T06:51:26.669Z,59.77
2023-04-02T06:54:00.857Z,59.78
2023-04-02T06:56:47.585Z,60.05
2023-04-02T06:59:25.445Z,59.95
2023-04-02T07:02:04.001Z,60.27
2023-04-02T07:04:34.769Z,60.55
2023-04-02T07:07:01.919Z,60.39
2023-04-02T07:09:38.776Z,61.54
2023-04-02T07:12:15.440Z,61.21
2023-04-02T07:14:43.054Z,61.36
2023-04-02T07:17:22.229Z,61.75
2023-04-02T07:19:55.757Z,61.82
2023-04-02T07:22:42.092Z,61.69
2023-04-02T07:25:11.239Z,60.52
2023-04-02T07:27:48.755Z,61.53
2023-04-02T07:30:17.710Z,61.56
2023-04-02T07:32:53.535Z,62.00
2023-04-02T07:35:33.647Z,61.78
2023-04-02T07:41:15.988Z,62.60
2023-04-02T07:43:58.179Z,62.54
2023-04-02T07:46:28.338Z,63.49
2023-04-02T07:49:02.381Z,63.52
2023-04-02T07:51:29.338Z,64.21
2023-04-02T07:53:58.749Z,64.19
2023-04-02T07:56:32.283Z,64.26
2023-04-02T07:59:01.688Z,64.17
2023-04-02T08:01:35.887Z,64.88
2023-04-02T08:04:19.107Z,65.36
2023-04-02T08:06:49.977Z,65.71
2023-04-02T08:09:23.017Z,66.05
2023-04-02T08:11:51.045Z,65.63
2023-04-02T08:14:23.980Z,65.94
2023-04-02T08:16:56.334Z,66.81
2023-04-02T08:19:28.975Z,67.01
2023-04-02T08:21:57.840Z,67.57
2023-04-02T08:24:27.989Z,67.31
2023-04-02T08:26:55.256Z,68.76
2023-04-02T08:29:34.485Z,69.06
2023-04-02T08:32:05.856Z,71.63
2023-04-02T08:34:39.263Z,72.38
2023-04-02T08:37:14.378Z,72.05
2023-04-02T08:39:49.982Z,72.77
2023-04-02T08:42:41.280Z,73.16
2023-04-02T08:45:31.015Z,73.91
2023-04-02T08:48:04.906Z,73.51
2023-04-02T08:50:42.484Z,74.47
2023-04-02T08:53:50.224Z,74.16
2023-04-02T08:56:48.594Z,74.01
2023-04-02T08:59:41.843Z,73.88
2023-04-02T09:02:24.048Z,74.12
2023-04-02T09:05:23.846Z,71.41
2023-04-02T09:07:53.072Z,73.26
2023-04-02T09:10:20.253Z,74.38
2023-04-02T09:12:53.800Z,75.01
2023-04-02T09:15:34.419Z,75.28
2023-04-02T09:18:24.249Z,75.67
2023-04-02T09:20:54.327Z,74.35
2023-04-02T09:23:24.779Z,73.68
2023-04-02T09:26:03.571Z,72.54
2023-04-02T09:28:41.311Z,73.58
2023-04-02T09:31:25.398Z,73.88
2023-04-02T09:34:20.747Z,75.12
2023-04-02T09:36:50.941Z,71.54
2023-04-02T09:39:26.207Z,72.34
2023-04-02T09:42:13.460Z,72.51
2023-04-02T09:44:57.574Z,72.27
2023-04-02T09:47:44.650Z,71.68
2023-04-02T09:50:41.335Z,68.22
2023-04-02T09:53:46.300Z,70.31
2023-04-02T09:56:23.634Z,69.41
2023-04-02T09:59:33.485Z,69.64
2023-04-02T10:02:27.732Z,68.91
2023-04-02T10:05:30.191Z,67.21
2023-04-02T10:08:20.354Z,64.54
2023-04-02T10:10:51.643Z,64.44
2023-04-02T10:13:35.908Z,65.07
2023-04-02T10:16:11.475Z,64.85
2023-04-02T10:19:06.632Z,64.75
2023-04-02T10:21:55.825Z,63.47
2023-04-02T10:24:23.928Z,63.08
2023-04-02T10:27:16.374Z,61.06
2023-04-02T10:30:05.262Z,60.98
2023-04-02T10:33:03.990Z,62.48
2023-04-02T10:35:39.881Z,60.79
2023-04-02T10:38:28.230Z,61.72
2023-04-02T10:41:19.956Z,60.66
2023-04-02T10:44:01.156Z,61.33
2023-04-02T10:46:37.179Z,60.80
2023-04-02T10:49:26.413Z,60.63
2023-04-02T10:52:08.788Z,59.40
2023-04-02T10:55:02.376Z,59.41
2023-04-02T10:57:40.787Z,58.85
2023-04-02T11:00:33.717Z,59.57
2023-04-02T11:03:19.725Z,58.81
2023-04-02T11:05:53.518Z,58.39
2023-04-02T11:08:44.905Z,59.25
2023-04-02T11:11:26.544Z,59.46
2023-04-02T11:14:05.590Z,59.33
2023-04-02T11:16:42.421Z,59.56
2023-04-02T11:19:23.723Z,59.72
2023-04-02T11:22:02.586Z,59.95
2023-04-02T11:24:34.206Z,60.22
2023-04-02T11:27:23.067Z,60.13
2023-04-02T11:29:59.952Z,60.62
2023-04-02T11:32:46.106Z,61.87
2023-04-02T11:35:39.612Z,62.10
2023-04-02T11:38:14.025Z,62.24
2023-04-02T11:40:52.468Z,62.67
2023-04-02T11:43:37.697Z,61.85
2023-04-02T11:46:42.566Z,61.77
2023-04-02T11:49:45.258Z,61.32
2023-04-02T11:52:30.968Z,62.07
2023-04-02T11:58:54.696Z,62.78
2023-04-02T12:04:59.893Z,61.88
2023-04-02T12:08:06.814Z,63.85
2023-04-02T12:11:11.868Z,64.80
2023-04-02T12:13:59.859Z,64.82
2023-04-02T12:16:37.868Z,62.19
2023-04-02T12:19:20.078Z,62.40
2023-04-02T12:21:55.521Z,59.56
2023-04-02T12:24:34.785Z,58.61
2023-04-02T12:27:25.459Z,58.26
2023-04-02T12:30:13.374Z,58.61
2023-04-02T12:32:43.402Z,58.55
2023-04-02T12:35:30.457Z,60.39
2023-04-02T12:38:13.538Z,62.11
2023-04-02T12:40:51.828Z,65.39
2023-04-02T12:43:45.385Z,67.16
2023-04-02T12:46:18.148Z,68.52
2023-04-02T12:48:48.207Z,69.49
2023-04-02T12:51:16.222Z,69.82
2023-04-02T12:53:52.997Z,67.86
2023-04-02T12:56:40.859Z,68.17
2023-04-02T12:59:27.267Z,67.12
2023-04-02T13:02:04.047Z,67.75
2023-04-02T13:04:31.717Z,66.98
2023-04-02T13:09:50.157Z,66.39
2023-04-02T13:12:34.135Z,66.31
2023-04-02T13:15:03.906Z,66.58
2023-04-02T13:21:04.841Z,66.96
2023-04-02T13:23:37.592Z,67.06
2023-04-02T13:26:19.704Z,64.56
2023-04-02T13:29:24.417Z,65.63
2023-04-02T13:32:02.187Z,64.70
2023-04-02T13:34:32.500Z,64.82
2023-04-02T13:37:02.359Z,64.88
2023-04-02T13:39:30.693Z,65.65
2023-04-02T13:42:04.655Z,66.53
2023-04-02T13:44:37.783Z,67.14
2023-04-02T13:47:04.929Z,66.17
2023-04-02T13:49:43.786Z,65.52
2023-04-02T13:52:14.870Z,65.15
2023-04-02T13:54:49.304Z,67.69
2023-04-02T13:57:16.381Z,65.31
2023-04-02T13:59:44.706Z,67.05
2023-04-02T14:02:21.353Z,65.72
2023-04-02T14:05:04.517Z,65.39
2023-04-02T14:08:11.665Z,64.75
2023-04-02T14:11:25.478Z,63.98
2023-04-02T14:14:20.002Z,62.61
2023-04-02T14:17:19.223Z,62.06
2023-04-02T14:19:58.475Z,60.57
2023-04-02T14:22:43.847Z,62.25
2023-04-02T14:25:43.025Z,61.33
2023-04-02T14:28:31.417Z,61.86
2023-04-02T14:31:16.644Z,62.33
2023-04-02T14:34:06.489Z,62.74
2023-04-02T14:37:45.382Z,61.74
2023-04-02T14:40:13.469Z,62.84
2023-04-02T14:42:47.993Z,63.09
2023-04-02T14:45:43.005Z,63.21
2023-04-02T14:48:32.106Z,62.86
2023-04-02T14:51:07.874Z,63.01
2023-04-02T14:53:53.537Z,62.90
2023-04-02T14:56:28.858Z,62.37
2023-04-02T14:59:45.557Z,60.43
2023-04-02T15:02:46.193Z,61.68
2023-04-02T15:05:54.307Z,62.06
2023-04-02T15:08:52.409Z,62.49
2023-04-02T15:14:38.193Z,60.76
2023-04-02T15:17:11.252Z,59.17
2023-04-02T15:19:42.436Z,59.63
2023-04-02T15:22:19.366Z,60.12
2023-04-02T15:25:10.450Z,58.74
2023-04-02T15:28:22.921Z,59.35
2023-04-02T15:31:03.959Z,59.55
2023-04-02T15:33:49.479Z,60.37
2023-04-02T15:36:30.726Z,58.88
2023-04-02T15:39:11.486Z,58.62
2023-04-02T15:42:27.897Z,59.21
2023-04-02T15:45:19.833Z,59.94
2023-04-02T15:48:09.060Z,60.14
2023-04-02T15:51:30.896Z,58.75
2023-04-02T15:54:16.285Z,57.80
2023-04-02T15:57:13.164Z,58.52
2023-04-02T16:00:04.766Z,57.94
2023-04-02T16:03:14.739Z,57.20
2023-04-02T16:06:40.524Z,57.19
2023-04-02T16:12:22.601Z,57.58
2023-04-02T16:14:50.199Z,57.39
2023-04-02T16:17:37.776Z,58.76
2023-04-02T16:20:42.537Z,57.57
2023-04-02T16:23:44.537Z,56.10
2023-04-02T16:26:45.365Z,57.57
2023-04-02T16:29:38.003Z,57.94
2023-04-02T16:32:45.546Z,57.67
2023-04-02T16:35:43.461Z,57.03
2023-04-02T16:38:53.796Z,56.58
2023-04-02T16:42:05.380Z,57.62
2023-04-02T16:44:56.726Z,56.98
2023-04-02T16:47:52.256Z,58.22
2023-04-02T16:50:34.769Z,58.25
2023-04-02T16:53:23.486Z,58.26
2023-04-02T16:56:39.896Z,55.60
2023-04-02T17:02:58.391Z,59.37
2023-04-02T17:05:46.707Z,60.15
2023-04-02T17:08:45.570Z,60.35
2023-04-02T17:12:08.644Z,59.70
2023-04-02T17:15:20.658Z,60.11
2023-04-02T17:18:19.140Z,60.07
2023-04-02T17:24:08.365Z,63.01
2023-04-02T17:27:00.637Z,64.75
2023-04-02T17:29:38.280Z,65.77
2023-04-02T17:32:25.641Z,66.11
2023-04-02T17:35:39.199Z,67.32
2023-04-02T17:38:58.894Z,64.72
2023-04-02T17:41:35.995Z,63.89
2023-04-02T17:44:15.887Z,61.54
2023-04-02T17:47:14.475Z,61.57
2023-04-02T17:49:50.282Z,64.40
2023-04-02T17:53:07.499Z,64.25
2023-04-02T17:55:41.887Z,66.02
2023-04-02T17:58:57.150Z,66.86
2023-04-02T18:01:50.473Z,68.22
2023-04-02T18:04:44.477Z,68.52
2023-04-02T18:07:55.709Z,65.94
2023-04-02T18:10:31.922Z,67.10
2023-04-02T18:13:39.712Z,67.39
2023-04-02T18:16:43.157Z,68.43
2023-04-02T18:19:13.632Z,69.02
2023-04-02T18:22:02.416Z,69.45
2023-04-02T18:25:08.808Z,70.19
2023-04-02T18:27:48.297Z,69.38
2023-04-02T18:30:39.564Z,65.61
2023-04-02T18:33:37.198Z,67.21
2023-04-02T18:37:05.113Z,65.84
2023-04-02T18:39:59.647Z,67.69
2023-04-02T18:42:52.553Z,67.25
2023-04-02T18:46:25.905Z,65.89
2023-04-02T18:49:28.095Z,66.55
2023-04-02T18:52:04.522Z,67.52
2023-04-02T18:55:18.142Z,68.55
2023-04-02T18:58:05.074Z,69.81
2023-04-02T19:00:37.093Z,69.17
2023-04-02T19:03:23.610Z,68.42
2023-04-02T19:06:25.148Z,68.58
2023-04-02T19:09:41.556Z,70.66
2023-04-02T19:12:34.098Z,71.69
2023-04-02T19:15:32.643Z,72.18
2023-04-02T19:18:35.443Z,70.58
2023-04-02T19:24:50.716Z,68.86
2023-04-02T19:28:01.595Z,69.23
2023-04-02T19:30:32.417Z,69.35
2023-04-02T19:33:23.827Z,69.03
2023-04-02T19:36:17.828Z,69.55
2023-04-02T19:39:11.942Z,70.55
2023-04-02T19:45:34.576Z,71.33
2023-04-02T19:48:55.183Z,72.47
2023-04-02T19:51:32.462Z,72.09
2023-04-02T19:54:28.122Z,72.45
2023-04-02T19:57:16.777Z,72.77
2023-04-02T20:00:19.287Z,73.37
2023-04-02T20:02:59.748Z,73.96
2023-04-02T20:05:36.149Z,74.12
2023-04-02T20:08:03.615Z,73.86
2023-04-02T20:13:49.909Z,73.05
2023-04-02T20:16:39.333Z,72.61
2023-04-02T20:22:39.542Z,71.90
2023-04-02T20:30:57.295Z,69.31
2023-04-02T20:33:54.522Z,68.48
2023-04-02T20:36:32.620Z,70.69
2023-04-02T20:39:00.411Z,72.36
2023-04-02T20:41:28.753Z,72.17
2023-04-02T20:44:20.737Z,72.75
2023-04-02T20:47:11.737Z,72.74
2023-04-02T20:49:44.885Z,73.99
2023-04-02T20:52:15.044Z,74.62
2023-04-02T20:54:42.489Z,74.69
2023-04-02T20:57:15.807Z,75.62
2023-04-02T21:00:10.803Z,75.56
2023-04-02T21:02:49.953Z,75.86
2023-04-02T21:05:22.286Z,75.66
2023-04-02T21:08:00.933Z,73.80
2023-04-02T21:10:28.371Z,73.44
2023-04-02T21:13:13.238Z,74.10
2023-04-02T21:18:42.311Z,75.08
2023-04-02T21:21:40.991Z,75.24
2023-04-02T21:24:24.462Z,76.51
2023-04-02T21:27:06.388Z,75.27
2023-04-02T21:32:48.057Z,74.05
2023-04-02T21:35:15.305Z,74.43
2023-04-02T21:37:44.149Z,73.73
2023-04-02T21:40:26.034Z,74.19
2023-04-02T21:43:18.045Z,74.63
2023-04-02T21:45:58.542Z,73.65
2023-04-02T21:48:39.098Z,73.16
2023-04-02T21:51:17.404Z,74.63
2023-04-02T21:54:09.609Z,74.75
2023-04-02T21:59:20.106Z,71.63
2023-04-02T22:02:16.113Z,71.38
2023-04-02T22:05:12.181Z,72.69
2023-04-02T22:07:42.878Z,72.45
2023-04-02T22:19:19.525Z,73.20
2023-04-02T22:22:04.445Z,73.11
2023-04-02T22:24:53.718Z,72.38
2023-04-02T22:30:52.274Z,69.49
2023-04-02T22:33:36.297Z,69.21
2023-04-02T22:36:22.859Z,68.84
2023-04-02T22:39:02.840Z,69.77
2023-04-02T22:41:58.353Z,69.64
2023-04-02T22:44:59.549Z,69.54
2023-04-02T22:47:40.477Z,70.30
2023-04-02T22:50:10.149Z,68.83
2023-04-02T22:56:00.749Z,68.74
2023-04-02T22:58:32.249Z,69.71
2023-04-02T23:01:33.443Z,67.58
2023-04-02T23:04:05.530Z,68.56
2023-04-02T23:06:36.900Z,69.53
2023-04-02T23:09:04.466Z,69.51
2023-04-02T23:11:42.221Z,70.44
2023-04-02T23:14:32.506Z,70.61
2023-04-02T23:16:59.869Z,71.18
2023-04-02T23:19:30.806Z,69.72
2023-04-02T23:22:03.549Z,69.44
2023-04-02T23:24:30.725Z,66.99
2023-04-02T23:29:46.390Z,68.28
2023-04-02T23:32:16.767Z,68.21
2023-04-02T23:34:44.214Z,69.83
2023-04-02T23:37:14.594Z,70.39
2023-04-02T23:39:42.096Z,70.44
2023-04-02T23:42:10.750Z,69.59
2023-04-02T23:44:37.751Z,70.68
2023-04-02T23:47:08.442Z,70.07
2023-04-02T23:49:35.821Z,71.25
2023-04-02T23:52:02.678Z,70.71
2023-04-02T23:54:29.642Z,69.90
2023-04-02T23:56:58.011Z,71.24
2023-04-02T23:59:25.038Z,70.55
